Time;durP1;ratioP1;P1;durP2;ratioP2;P2;SDS_P1;SDS_P2;PMS_P1;PMS_P2;Temp;Humidity;BMP_temperature;BMP_pressure;BME280_temperature;BME280_humidity;BME280_pressure;Samples;Min_cycle;Max_cycle;Signal;HPM_P1;HPM_P2
2022/01/14 00:01:53;;;;;;;19.17;7.90;;;;;;;6.80;89.95;103282.00;5069215;28;20185;-73
2022/01/14 00:04:19;;;;;;;18.30;7.63;;;;;;;6.79;89.73;103281.13;5069063;28;20220;-73
2022/01/14 00:06:45;;;;;;;20.53;7.53;;;;;;;6.79;89.93;103280.25;5067479;28;20584;-73
2022/01/14 00:09:12;;;;;;;17.70;7.13;;;;;;;6.78;89.85;103278.47;5069093;28;20181;-73
2022/01/14 00:11:46;;;;;;;13.40;7.50;;;;;;;6.77;89.44;103277.56;5067438;28;20667;-73
2022/01/14 00:16:40;;;;;;;21.20;7.70;;;;;;;6.79;89.97;103272.59;5072677;28;20208;-73
2022/01/14 00:19:06;;;;;;;18.97;7.17;;;;;;;6.76;90.66;103268.16;5071100;28;20204;-73
2022/01/14 00:21:34;;;;;;;17.40;7.23;;;;;;;6.78;89.70;103264.06;5072321;28;20279;-73
2022/01/14 00:24:12;;;;;;;16.20;7.43;;;;;;;6.78;90.16;103266.63;5072531;28;20267;-73
2022/01/14 00:32:15;;;;;;;20.20;7.93;;;;;;;6.74;90.60;103267.19;5070927;28;20286;-73
2022/01/14 00:34:40;;;;;;;20.93;7.93;;;;;;;6.75;91.07;103270.59;5070884;28;20847;-73
2022/01/14 00:37:05;;;;;;;20.00;8.17;;;;;;;6.75;90.46;103268.06;5072107;28;20228;-73
2022/01/14 00:39:31;;;;;;;19.57;7.73;;;;;;;6.74;90.77;103263.75;5072020;28;20676;-73
2022/01/14 00:41:56;;;;;;;17.17;7.60;;;;;;;6.73;90.77;103265.38;5072296;28;20181;-73
2022/01/14 00:44:22;;;;;;;17.37;8.40;;;;;;;6.72;90.72;103253.44;5070856;28;20189;-73
2022/01/14 00:46:48;;;;;;;13.23;7.63;;;;;;;6.72;91.16;103250.91;5071943;28;20216;-73
2022/01/14 00:49:16;;;;;;;21.67;8.70;;;;;;;6.73;91.35;103251.78;5071909;28;20189;-73
2022/01/14 00:51:42;;;;;;;17.63;8.77;;;;;;;6.71;90.61;103256.78;5071800;28;20193;-73
2022/01/14 00:54:08;;;;;;;20.60;8.30;;;;;;;6.71;90.90;103254.22;5071927;28;20200;-73
2022/01/14 00:56:47;;;;;;;21.70;8.20;;;;;;;6.72;90.87;103248.34;5072148;28;20343;-74
2022/01/14 00:59:15;;;;;;;24.13;8.20;;;;;;;6.73;90.95;103259.44;5071595;28;20725;-73
2022/01/14 01:01:49;;;;;;;20.23;7.73;;;;;;;6.71;91.19;103264.41;5054177;28;20221;-73
2022/01/14 01:04:32;;;;;;;17.40;7.97;;;;;;;6.70;91.62;103255.00;5071953;28;20584;-73
2022/01/14 01:07:00;;;;;;;21.00;8.53;;;;;;;6.72;91.01;103260.22;5070086;28;20467;-73
2022/01/14 01:09:26;;;;;;;19.60;9.07;;;;;;;6.72;90.78;103258.53;5071543;28;20193;-73
2022/01/14 01:15:04;;;;;;;21.43;8.27;;;;;;;6.71;91.16;103245.69;5071766;28;20760;-73
2022/01/14 01:17:18;;;;;;;19.97;8.57;;;;;;;6.70;91.67;103236.28;5051184;28;20734;-73
2022/01/14 01:19:44;;;;;;;20.47;8.80;;;;;;;6.70;91.18;103246.47;5049921;28;20302;-73
2022/01/14 01:22:09;;;;;;;19.23;8.07;;;;;;;6.69;91.49;103252.34;5067161;28;20189;-73
2022/01/14 01:24:48;;;;;;;18.20;8.13;;;;;;;6.65;92.07;103247.78;5070037;28;20189;-73
2022/01/14 01:27:16;;;;;;;16.93;7.80;;;;;;;6.65;91.39;103253.78;5053588;28;20357;-73
2022/01/14 01:32:08;;;;;;;24.37;8.13;;;;;;;6.65;91.78;103242.69;5071364;28;20207;-73
2022/01/14 01:34:34;;;;;;;17.90;7.47;;;;;;;6.65;92.19;103246.16;5071362;28;20216;-73
2022/01/14 01:37:01;;;;;;;19.83;7.50;;;;;;;6.64;92.58;103251.97;5070855;28;20235;-73
2022/01/14 01:39:29;;;;;;;17.63;7.40;;;;;;;6.67;92.34;103246.22;5070985;28;20677;-73
2022/01/14 01:42:01;;;;;;;22.10;6.97;;;;;;;6.65;91.91;103242.69;5070967;28;20613;-73
2022/01/14 01:44:27;;;;;;;19.23;7.77;;;;;;;6.68;91.62;103241.25;5069792;28;20197;-73
2022/01/14 01:46:55;;;;;;;21.83;7.40;;;;;;;6.67;91.65;103243.69;5070850;28;20685;-73
2022/01/14 01:49:23;;;;;;;19.37;7.53;;;;;;;6.68;91.92;103248.91;5070603;28;20188;-73
2022/01/14 01:51:51;;;;;;;21.63;7.83;;;;;;;6.68;92.11;103248.03;5070899;28;20196;-73
2022/01/14 01:54:18;;;;;;;25.43;7.87;;;;;;;6.65;92.08;103248.69;5070841;28;20193;-73
2022/01/14 01:56:44;;;;;;;17.10;7.83;;;;;;;6.68;92.54;103248.03;5069275;28;20193;-73
2022/01/14 01:59:09;;;;;;;15.23;6.90;;;;;;;6.68;92.54;103240.41;5070566;28;20833;-73
2022/01/14 02:01:37;;;;;;;15.83;6.63;;;;;;;6.68;91.72;103235.31;5086324;28;20201;-73
2022/01/14 02:04:03;;;;;;;17.17;6.97;;;;;;;6.69;91.46;103244.69;5070529;28;20197;-73
2022/01/14 02:06:29;;;;;;;15.40;6.30;;;;;;;6.69;91.27;103237.97;5070463;28;20658;-73
2022/01/14 02:08:54;;;;;;;20.37;6.80;;;;;;;6.68;91.27;103241.25;5070290;28;20189;-73
2022/01/14 02:11:20;;;;;;;16.67;7.03;;;;;;;6.69;92.38;103245.59;5070425;28;20622;-73
2022/01/14 02:13:45;;;;;;;17.80;7.20;;;;;;;6.68;92.19;103236.16;5070505;28;20613;-73
2022/01/14 02:16:33;;;;;;;19.27;7.97;;;;;;;6.67;91.90;103230.97;5070311;28;20943;-73
2022/01/14 02:19:25;;;;;;;18.40;7.40;;;;;;;6.68;92.76;103236.16;5069530;28;20208;-73
2022/01/14 02:22:11;;;;;;;21.20;7.30;;;;;;;6.67;92.36;103228.41;5052310;28;20208;-73
2022/01/14 02:27:08;;;;;;;22.50;7.13;;;;;;;6.66;92.71;103227.53;5067887;28;20220;-73
2022/01/14 02:29:34;;;;;;;21.03;7.13;;;;;;;6.65;92.52;103223.25;5068512;28;20692;-73
2022/01/14 02:32:00;;;;;;;18.03;7.10;;;;;;;6.66;92.42;103219.91;5070153;28;20193;-73
2022/01/14 02:34:26;;;;;;;19.70;6.50;;;;;;;6.66;92.89;103209.72;5070112;28;20189;-73
2022/01/14 02:36:52;;;;;;;17.63;6.73;;;;;;;6.66;92.65;103209.72;5069356;28;20866;-73
2022/01/14 02:39:19;;;;;;;19.00;6.57;;;;;;;6.64;92.57;103198.53;5069317;28;20240;-73
2022/01/14 02:41:45;;;;;;;13.47;6.77;;;;;;;6.65;93.22;103194.34;5055601;28;20193;-73
2022/01/14 02:44:18;;;;;;;17.53;6.17;;;;;;;6.65;92.93;103205.41;5061847;28;20596;-73
2022/01/14 02:46:52;;;;;;;16.73;6.27;;;;;;;6.64;93.13;103193.44;5067541;28;20223;-73
2022/01/14 02:49:17;;;;;;;19.80;6.23;;;;;;;6.63;93.40;103186.59;5058201;28;20189;-73
2022/01/14 02:51:42;;;;;;;16.53;5.63;;;;;;;6.63;92.02;103189.13;5061619;28;20237;-73
2022/01/14 02:54:21;;;;;;;18.43;6.70;;;;;;;6.63;92.95;103178.09;5059598;28;20193;-73
2022/01/14 02:56:52;;;;;;;10.87;5.97;;;;;;;6.64;92.69;103168.00;5080707;28;20283;-73
2022/01/14 02:59:19;;;;;;;16.40;5.87;;;;;;;6.65;92.33;103169.78;5068203;28;20181;-73
2022/01/14 03:01:46;;;;;;;16.87;6.13;;;;;;;6.67;92.08;103168.22;5069597;28;20634;-73
2022/01/14 03:04:14;;;;;;;14.93;5.53;;;;;;;6.68;91.98;103162.34;5068335;28;20196;-73
2022/01/14 03:06:40;;;;;;;16.03;5.47;;;;;;;6.69;92.28;103159.06;5068016;28;20562;-73
2022/01/14 03:09:06;;;;;;;11.50;5.27;;;;;;;6.72;91.76;103150.75;5067879;28;20521;-73
2022/01/14 03:11:39;;;;;;;10.30;5.03;;;;;;;6.73;91.33;103148.28;5068167;28;20241;-73
2022/01/14 03:14:05;;;;;;;13.77;5.30;;;;;;;6.71;91.55;103139.66;5069493;28;20192;-73
2022/01/14 03:16:37;;;;;;;15.50;4.93;;;;;;;6.70;91.53;103143.00;5069490;28;20207;-73
2022/01/14 03:19:12;;;;;;;11.73;5.00;;;;;;;6.72;91.28;103143.97;5069540;28;20614;-73
2022/01/14 03:21:41;;;;;;;11.93;5.20;;;;;;;6.71;92.02;103141.31;5069506;28;20177;-73
2022/01/14 03:27:08;;;;;;;15.23;5.37;;;;;;;6.73;91.22;103133.00;5035262;28;20236;-73
2022/01/14 03:29:35;;;;;;;13.40;5.33;;;;;;;6.72;90.89;103113.44;5069239;28;20521;-73
2022/01/14 03:32:01;;;;;;;11.73;4.90;;;;;;;6.75;90.99;103113.66;5069495;28;20201;-73
2022/01/14 03:34:26;;;;;;;16.17;5.40;;;;;;;6.76;91.59;103128.16;5069307;28;20293;-73
2022/01/14 03:36:52;;;;;;;12.93;5.30;;;;;;;6.76;91.56;103123.06;5069250;28;20225;-73
2022/01/14 03:39:17;;;;;;;17.53;5.73;;;;;;;6.77;91.39;103123.97;5069096;28;20270;-73
2022/01/14 03:41:42;;;;;;;12.60;5.27;;;;;;;6.77;91.48;103122.28;5069308;28;20204;-73
2022/01/14 03:44:08;;;;;;;12.50;5.60;;;;;;;6.79;91.59;103127.47;5084948;28;20196;-73
2022/01/14 03:46:33;;;;;;;12.13;5.07;;;;;;;6.78;91.30;103128.25;5054449;28;20221;-74
2022/01/14 03:48:59;;;;;;;14.80;5.90;;;;;;;6.76;91.95;103120.50;5052276;28;20192;-73
2022/01/14 03:51:24;;;;;;;16.13;6.03;;;;;;;6.75;92.13;103115.31;5057220;28;20576;-73
2022/01/14 03:53:50;;;;;;;12.93;5.70;;;;;;;6.72;92.23;103110.03;5073814;28;20203;-73
2022/01/14 03:56:16;;;;;;;14.70;6.83;;;;;;;6.73;91.56;103112.66;5073334;28;20177;-73
2022/01/14 03:58:42;;;;;;;19.30;7.00;;;;;;;6.71;92.02;103106.56;5073194;28;20243;-73
2022/01/14 04:01:09;;;;;;;18.87;7.93;;;;;;;6.72;91.33;103099.84;5073290;28;20197;-73
2022/01/14 04:03:35;;;;;;;17.27;7.33;;;;;;;6.71;91.72;103098.94;5073453;28;20193;-73
2022/01/14 04:06:01;;;;;;;20.67;7.63;;;;;;;6.71;91.90;103085.31;5073303;28;20247;-73
2022/01/14 04:08:26;;;;;;;15.53;7.10;;;;;;;6.70;92.22;103071.72;5072708;28;20213;-73
2022/01/14 04:10:53;;;;;;;16.03;7.23;;;;;;;6.70;92.11;103071.72;5071864;28;20209;-73
2022/01/14 04:13:35;;;;;;;21.43;7.77;;;;;;;6.69;91.58;103077.59;5073003;28;20189;-73
2022/01/14 04:16:00;;;;;;;17.30;7.73;;;;;;;6.66;92.09;103063.75;5071457;28;20619;-73
2022/01/14 04:18:26;;;;;;;14.37;6.67;;;;;;;6.67;91.68;103062.97;5072334;28;20247;-73
2022/01/14 04:20:51;;;;;;;23.97;8.70;;;;;;;6.68;91.90;103075.81;5072558;28;20176;-74
2022/01/14 04:23:19;;;;;;;17.47;8.00;;;;;;;6.68;91.88;103074.94;5072696;28;20199;-73
2022/01/14 04:25:47;;;;;;;19.83;7.70;;;;;;;6.69;91.70;103076.69;5071230;28;20296;-73
2022/01/14 04:28:13;;;;;;;19.70;8.40;;;;;;;6.68;92.05;103073.25;5072270;28;20284;-73
2022/01/14 04:30:38;;;;;;;21.17;8.27;;;;;;;6.68;91.66;103083.44;5072311;28;20268;-73
2022/01/14 04:33:04;;;;;;;18.40;7.57;;;;;;;6.69;91.68;103069.97;5072440;28;20189;-73
2022/01/14 04:35:31;;;;;;;16.47;7.80;;;;;;;6.69;91.30;103076.69;5072227;28;20181;-74
2022/01/14 04:37:57;;;;;;;17.00;7.47;;;;;;;6.68;91.19;103074.94;5070538;28;20232;-73
2022/01/14 04:40:23;;;;;;;16.57;7.93;;;;;;;6.68;90.56;103067.31;5072357;28;20650;-73
2022/01/14 04:42:48;;;;;;;19.10;7.40;;;;;;;6.68;90.93;103069.84;5072370;28;20205;-74
2022/01/14 04:45:27;;;;;;;13.90;7.20;;;;;;;6.67;91.63;103068.94;5072079;28;20356;-73
2022/01/14 04:47:53;;;;;;;18.87;7.80;;;;;;;6.67;90.82;103070.59;5072004;28;20230;-73
2022/01/14 04:50:21;;;;;;;15.57;7.30;;;;;;;6.68;90.84;103069.84;5071811;28;20189;-73
2022/01/14 04:52:47;;;;;;;13.80;6.57;;;;;;;6.69;90.50;103066.53;5072062;28;20231;-73
2022/01/14 04:55:15;;;;;;;19.27;7.10;;;;;;;6.69;90.17;103062.31;5070883;28;20238;-73
2022/01/14 04:57:41;;;;;;;16.17;6.90;;;;;;;6.69;90.56;103048.69;5070418;28;20250;-73
2022/01/14 05:00:13;;;;;;;17.87;6.97;;;;;;;6.69;90.08;103058.88;5071122;28;20177;-73
2022/01/14 05:02:39;;;;;;;15.77;6.60;;;;;;;6.70;90.33;103063.19;5070560;28;20212;-73
2022/01/14 05:05:06;;;;;;;19.17;6.93;;;;;;;6.70;90.18;103068.28;5071858;28;20217;-73
2022/01/14 05:07:32;;;;;;;15.10;6.63;;;;;;;6.70;89.81;103070.81;5071776;28;20220;-73
2022/01/14 05:12:31;;;;;;;14.10;6.73;;;;;;;6.71;90.08;103067.50;5071811;28;20189;-73
2022/01/14 05:14:57;;;;;;;15.83;6.90;;;;;;;6.70;89.52;103064.09;5071507;28;20319;-73
2022/01/14 05:17:22;;;;;;;18.37;6.80;;;;;;;6.68;89.39;103062.22;5071558;28;20304;-73
2022/01/14 05:19:49;;;;;;;13.33;7.40;;;;;;;6.69;89.86;103067.41;5071323;28;20222;-73
2022/01/14 05:22:14;;;;;;;15.30;7.43;;;;;;;6.70;89.66;103059.00;5071396;28;20185;-73
2022/01/14 05:24:40;;;;;;;16.37;6.97;;;;;;;6.70;89.41;103058.09;5071513;28;20529;-73
2022/01/14 05:27:05;;;;;;;15.10;6.30;;;;;;;6.69;89.30;103063.97;5071258;28;20267;-73
2022/01/14 05:29:31;;;;;;;14.53;6.80;;;;;;;6.69;89.68;103075.06;5069786;28;20192;-74
2022/01/14 05:32:02;;;;;;;17.63;7.80;;;;;;;6.70;89.55;103070.81;5071411;28;20576;-73
2022/01/14 05:34:29;;;;;;;17.57;7.20;;;;;;;6.69;89.61;103081.78;5069963;28;20192;-73
2022/01/14 05:36:54;;;;;;;17.93;7.07;;;;;;;6.68;89.54;103078.34;5071138;28;20254;-73
2022/01/14 05:39:20;;;;;;;18.33;6.63;;;;;;;6.70;89.37;103078.47;5071027;28;20267;-73
2022/01/14 05:41:48;;;;;;;17.13;6.90;;;;;;;6.71;88.74;103075.13;5071072;28;20260;-73
2022/01/14 05:44:13;;;;;;;14.87;6.10;;;;;;;6.72;89.67;103076.94;5053352;28;20643;-73
2022/01/14 05:46:38;;;;;;;24.93;6.20;;;;;;;6.72;89.29;103071.84;5070957;28;20290;-74
2022/01/14 05:49:04;;;;;;;15.50;6.13;;;;;;;6.72;89.53;103066.75;5070890;28;20181;-73
2022/01/14 05:51:29;;;;;;;17.90;6.20;;;;;;;6.71;89.27;103072.59;5070947;28;20193;-73
2022/01/14 05:53:55;;;;;;;18.43;6.40;;;;;;;6.70;88.96;103071.72;5070842;28;20189;-73
2022/01/14 05:56:20;;;;;;;18.70;6.27;;;;;;;6.70;89.26;103074.28;5070460;28;20247;-73
2022/01/14 05:58:45;;;;;;;15.43;5.90;;;;;;;6.70;89.59;103081.00;5070560;28;20287;-73
2022/01/14 06:01:11;;;;;;;15.23;5.97;;;;;;;6.70;89.15;103078.47;5070848;28;20192;-73
2022/01/14 06:03:36;;;;;;;12.90;5.73;;;;;;;6.70;89.02;103079.34;5070662;28;20177;-73
2022/01/14 06:06:02;;;;;;;17.60;5.83;;;;;;;6.71;89.01;103081.13;5070620;28;20235;-73
2022/01/14 06:08:27;;;;;;;12.60;5.93;;;;;;;6.71;89.40;103087.84;5070281;28;20211;-73
2022/01/14 06:10:52;;;;;;;12.57;5.93;;;;;;;6.69;88.96;103086.88;5069829;28;20197;-73
2022/01/14 06:13:18;;;;;;;18.03;6.23;;;;;;;6.69;89.50;103087.78;5070025;28;20209;-73
2022/01/14 06:15:43;;;;;;;19.13;5.97;;;;;;;6.67;89.25;103085.88;5070520;28;20188;-73
2022/01/14 06:18:08;;;;;;;18.17;6.33;;;;;;;6.67;89.92;103089.31;5070174;28;20212;-73
2022/01/14 06:20:34;;;;;;;18.00;6.50;;;;;;;6.66;90.15;103099.38;5070364;28;20196;-73
2022/01/14 06:22:59;;;;;;;17.10;6.27;;;;;;;6.64;90.35;103093.31;5069353;28;20196;-74
2022/01/14 06:25:25;;;;;;;18.53;6.67;;;;;;;6.64;90.24;103091.63;5070230;28;20270;-73
2022/01/14 06:27:50;;;;;;;22.40;6.93;;;;;;;6.63;90.83;103101.72;5070125;28;20617;-73
2022/01/14 06:30:16;;;;;;;12.57;6.63;;;;;;;6.60;90.87;103093.88;5070434;28;20796;-73
2022/01/14 06:32:41;;;;;;;14.63;5.90;;;;;;;6.59;91.64;103090.41;5070232;28;20260;-73
2022/01/14 06:35:13;;;;;;;17.43;6.57;;;;;;;6.56;91.81;103094.41;5052210;28;20533;-73
2022/01/14 06:37:39;;;;;;;16.53;6.27;;;;;;;6.55;92.17;103090.09;5068747;28;20598;-73
2022/01/14 06:40:05;;;;;;;16.27;6.87;;;;;;;6.53;91.97;103090.00;5069692;28;20750;-74
2022/01/14 06:42:31;;;;;;;16.50;5.67;;;;;;;6.52;92.76;103102.59;5068716;28;20558;-73
2022/01/14 06:44:56;;;;;;;19.37;5.67;;;;;;;6.49;92.79;103116.00;5069888;28;20184;-73
2022/01/14 06:47:22;;;;;;;15.33;6.27;;;;;;;6.50;92.36;103105.03;5069853;28;20248;-73
2022/01/14 06:49:48;;;;;;;13.60;6.37;;;;;;;6.48;92.55;103104.06;5069629;28;20271;-73
2022/01/14 06:52:13;;;;;;;23.77;6.33;;;;;;;6.48;92.36;103113.34;5069621;28;20719;-73
2022/01/14 06:54:38;;;;;;;15.40;6.20;;;;;;;6.46;92.40;103117.44;5068104;28;20223;-73
2022/01/14 06:57:04;;;;;;;16.43;6.13;;;;;;;6.47;93.16;103114.13;5069634;28;20207;-73
2022/01/14 06:59:29;;;;;;;16.60;5.93;;;;;;;6.47;92.30;103117.56;5069509;28;20181;-73
2022/01/14 07:01:55;;;;;;;22.93;7.00;;;;;;;6.48;93.00;103123.50;5069685;28;20302;-73
2022/01/14 07:04:20;;;;;;;17.07;5.87;;;;;;;6.46;93.18;103125.97;5067999;28;20189;-73
2022/01/14 07:06:46;;;;;;;18.10;5.57;;;;;;;6.43;92.46;103125.75;5069169;28;20258;-73
2022/01/14 07:09:11;;;;;;;17.23;5.80;;;;;;;6.43;93.41;103120.66;5067849;28;20250;-73
2022/01/14 07:11:37;;;;;;;19.97;5.13;;;;;;;6.45;93.00;103126.72;5079536;28;20197;-73
2022/01/14 07:14:06;;;;;;;16.03;6.53;;;;;;;6.42;93.26;103118.00;5049610;28;20269;-73
2022/01/14 07:16:33;;;;;;;17.07;5.20;;;;;;;6.40;93.47;103120.41;5064175;28;20736;-73
2022/01/14 07:19:03;;;;;;;18.07;5.57;;;;;;;6.41;93.13;103122.19;5069133;28;20223;-73
2022/01/14 07:21:28;;;;;;;18.43;5.37;;;;;;;6.41;93.52;103123.84;5069577;28;20571;-73
2022/01/14 07:23:54;;;;;;;20.50;5.50;;;;;;;6.43;93.07;103129.94;5069262;28;20189;-73
2022/01/14 07:26:20;;;;;;;19.90;5.50;;;;;;;6.42;92.90;103126.53;5069469;28;20205;-73
2022/01/14 07:28:45;;;;;;;17.67;4.87;;;;;;;6.43;92.60;103130.81;5067800;28;20646;-73
2022/01/14 07:31:10;;;;;;;14.43;4.93;;;;;;;6.43;92.70;103140.09;5069552;28;20236;-73
2022/01/14 07:33:36;;;;;;;21.50;5.30;;;;;;;6.45;92.55;103143.66;5069198;28;20662;-73
2022/01/14 07:36:01;;;;;;;20.23;4.37;;;;;;;6.44;92.49;103142.78;5069531;28;20242;-73
2022/01/14 07:38:26;;;;;;;14.53;4.40;;;;;;;6.46;91.97;103145.44;5068147;28;20248;-73
2022/01/14 07:40:52;;;;;;;17.70;5.77;;;;;;;6.48;91.58;103143.88;5069615;28;20189;-74
2022/01/14 07:43:19;;;;;;;15.50;4.93;;;;;;;6.47;91.67;103140.47;5069376;28;20212;-74
2022/01/14 07:45:45;;;;;;;22.77;5.23;;;;;;;6.47;91.47;103145.53;5068997;28;20208;-73
2022/01/14 07:48:10;;;;;;;19.07;4.97;;;;;;;6.49;92.06;103146.53;5068890;28;20932;-73
2022/01/14 07:50:35;;;;;;;21.53;6.30;;;;;;;6.52;91.34;103151.84;5066074;28;20272;-73
2022/01/14 07:53:01;;;;;;;18.77;5.40;;;;;;;6.52;91.25;103145.88;5050466;28;20218;-73
2022/01/14 07:55:26;;;;;;;17.37;5.47;;;;;;;6.53;91.21;103143.44;5047895;28;20272;-73
2022/01/14 07:57:51;;;;;;;15.70;4.80;;;;;;;6.54;91.42;103146.88;5047653;28;20241;-73
2022/01/14 08:00:17;;;;;;;21.57;4.60;;;;;;;6.57;91.33;103144.53;5047697;28;20178;-73
2022/01/14 08:02:42;;;;;;;17.67;4.87;;;;;;;6.56;91.57;103137.69;5051439;28;20195;-73
2022/01/14 08:05:08;;;;;;;15.57;4.53;;;;;;;6.57;91.62;103135.25;5058976;28;20190;-73
2022/01/14 08:07:35;;;;;;;19.80;5.57;;;;;;;6.57;91.79;103134.34;5062394;28;20212;-73
2022/01/14 08:10:01;;;;;;;17.27;5.00;;;;;;;6.57;90.86;103126.72;5084130;28;20613;-73
2022/01/14 08:12:26;;;;;;;21.07;4.57;;;;;;;6.59;91.27;103138.78;5089184;28;20181;-73
2022/01/14 08:14:51;;;;;;;19.13;5.07;;;;;;;6.62;91.17;103138.13;5089219;28;20728;-73
2022/01/14 08:17:19;;;;;;;18.43;4.50;;;;;;;6.62;91.18;103128.81;5053086;28;20746;-73
2022/01/14 08:19:45;;;;;;;15.33;5.00;;;;;;;6.85;91.76;103133.91;5066370;28;20235;-72
2022/01/14 08:22:10;;;;;;;18.03;4.47;;;;;;;6.75;91.07;103141.66;5068306;28;20208;-73
2022/01/14 08:24:36;;;;;;;18.50;4.50;;;;;;;6.72;91.15;103143.13;5066757;28;20201;-74
2022/01/14 08:27:05;;;;;;;12.97;4.73;;;;;;;6.69;91.59;103141.25;5066738;28;20213;-73
2022/01/14 08:29:32;;;;;;;17.80;4.33;;;;;;;6.69;91.03;103143.78;5067718;28;20221;-73
2022/01/14 08:31:57;;;;;;;20.70;4.97;;;;;;;6.70;90.42;103142.09;5068874;28;20169;-73
2022/01/14 08:34:24;;;;;;;19.23;4.53;;;;;;;6.70;91.33;103148.09;5069205;28;20189;-73
2022/01/14 08:36:50;;;;;;;17.57;5.50;;;;;;;6.71;91.68;103156.59;5072260;28;20209;-74
2022/01/14 08:39:15;;;;;;;18.83;4.50;;;;;;;6.71;91.32;103156.59;5072191;28;20211;-73
2022/01/14 08:41:41;;;;;;;18.63;4.93;;;;;;;6.73;91.44;103152.50;5075817;28;20204;-73
2022/01/14 08:44:07;;;;;;;18.83;5.20;;;;;;;6.73;90.95;103155.94;5068445;28;20248;-74
2022/01/14 08:46:34;;;;;;;17.40;4.93;;;;;;;6.75;91.03;103164.56;5070823;28;20296;-73
2022/01/14 08:49:01;;;;;;;22.17;5.33;;;;;;;6.75;90.68;103168.78;5065379;28;20219;-73
2022/01/14 08:51:28;;;;;;;19.53;4.83;;;;;;;6.74;91.10;103172.09;5070186;28;20193;-73
2022/01/14 08:53:54;;;;;;;21.27;4.60;;;;;;;6.76;91.53;103181.63;5071845;28;20932;-73
2022/01/14 08:56:20;;;;;;;21.50;5.30;;;;;;;6.74;90.87;103180.63;5070000;28;20181;-73
2022/01/14 08:58:45;;;;;;;20.47;5.10;;;;;;;6.75;91.36;103184.03;5071342;28;20552;-73
2022/01/14 09:01:10;;;;;;;24.33;5.57;;;;;;;6.77;91.25;103190.16;5070708;28;20196;-73
2022/01/14 09:03:36;;;;;;;22.17;6.23;;;;;;;6.74;92.13;103195.00;5070092;28;20199;-73
2022/01/14 09:06:01;;;;;;;24.20;6.10;;;;;;;6.75;92.63;103191.69;5071852;28;20308;-74
2022/01/14 09:08:27;;;;;;;22.40;6.37;;;;;;;6.70;92.91;103178.63;5071406;28;20641;-74
2022/01/14 09:10:52;;;;;;;24.40;7.30;;;;;;;6.72;92.68;103169.44;5071565;28;20189;-74
2022/01/14 09:13:17;;;;;;;27.03;7.70;;;;;;;6.70;93.33;103159.91;5070291;28;20238;-74
2022/01/14 09:15:43;;;;;;;21.33;7.53;;;;;;;6.71;93.86;103165.13;5071094;28;20634;-74
2022/01/14 09:18:08;;;;;;;24.07;7.37;;;;;;;6.71;94.14;103161.69;5071227;28;20213;-74
2022/01/14 09:20:34;;;;;;;18.80;7.50;;;;;;;6.73;94.98;103155.94;5071580;28;20193;-75
2022/01/14 09:22:59;;;;;;;20.70;8.63;;;;;;;6.74;94.49;103152.63;5071214;28;20591;-74
2022/01/14 09:25:25;;;;;;;22.67;8.20;;;;;;;6.72;95.29;103149.06;5069672;28;20205;-72
2022/01/14 09:27:52;;;;;;;28.53;10.23;;;;;;;6.71;95.75;103148.94;5071207;28;20216;-73
2022/01/14 09:30:22;;;;;;;27.43;10.07;;;;;;;6.66;95.71;103142.66;5053072;28;20535;-75
2022/01/14 09:32:48;;;;;;;23.23;9.70;;;;;;;6.59;95.63;103153.19;5071100;28;20197;-74
2022/01/14 09:35:15;;;;;;;23.50;9.67;;;;;;;6.60;96.19;103166.03;5071008;28;20173;-74
2022/01/14 09:37:42;;;;;;;21.37;10.53;;;;;;;6.62;96.10;103173.75;5071134;28;20327;-75
2022/01/14 09:40:08;;;;;;;26.33;11.73;;;;;;;6.57;96.52;103165.78;5069286;28;20196;-73
2022/01/14 09:42:33;;;;;;;35.03;11.83;;;;;;;6.54;96.92;103170.66;5069579;28;20189;-74
2022/01/14 09:44:59;;;;;;;29.97;12.57;;;;;;;6.56;96.31;103165.69;5059688;27;20233;-74
2022/01/14 09:47:24;;;;;;;29.63;12.83;;;;;;;6.55;96.60;103172.44;5056498;28;20202;-74
2022/01/14 09:49:50;;;;;;;29.43;13.20;;;;;;;6.50;97.27;103170.31;5062574;28;20185;-74
2022/01/14 09:52:16;;;;;;;30.87;13.00;;;;;;;6.52;97.03;103179.84;5060965;28;20204;-74
2022/01/14 09:54:43;;;;;;;27.27;14.13;;;;;;;6.52;97.94;103173.84;5065216;28;20193;-74
2022/01/14 09:57:11;;;;;;;33.47;15.17;;;;;;;6.53;98.06;103179.06;5055238;28;20288;-73
2022/01/14 09:59:37;;;;;;;28.23;14.77;;;;;;;6.52;97.77;103182.38;5049076;28;20185;-74
2022/01/14 10:02:03;;;;;;;28.40;15.47;;;;;;;6.50;98.04;103180.50;5049254;28;20267;-73
2022/01/14 10:04:29;;;;;;;30.73;14.97;;;;;;;6.57;98.51;103181.06;5050490;28;20221;-73
2022/01/14 10:06:56;;;;;;;27.90;13.70;;;;;;;6.57;98.24;103177.63;5066689;28;20261;-73
2022/01/14 10:09:29;;;;;;;27.80;13.03;;;;;;;6.60;98.43;103177.84;5070194;28;20181;-73
2022/01/14 10:12:13;;;;;;;26.83;14.33;;;;;;;6.62;97.95;103179.72;5070314;28;20173;-74
2022/01/14 10:14:45;;;;;;;30.33;13.60;;;;;;;6.58;98.76;103166.69;5069040;28;20197;-73
2022/01/14 10:17:11;;;;;;;25.57;13.30;;;;;;;6.63;97.80;103168.78;5067948;28;20863;-74
2022/01/14 10:19:42;;;;;;;30.20;13.97;;;;;;;6.63;98.49;103170.44;5070065;28;20235;-74
2022/01/14 10:22:24;;;;;;;32.77;13.50;;;;;;;6.66;98.57;103174.09;5068983;28;20213;-74
2022/01/14 10:24:57;;;;;;;28.20;13.27;;;;;;;6.65;97.71;103168.88;5069971;28;20552;-74
2022/01/14 10:27:35;;;;;;;24.83;12.57;;;;;;;6.65;98.91;103169.78;5070341;28;20709;-74
2022/01/14 10:30:14;;;;;;;28.17;13.53;;;;;;;6.67;97.92;103177.50;5070271;28;20238;-74
2022/01/14 10:32:41;;;;;;;31.67;13.20;;;;;;;6.65;97.60;103169.78;5037693;28;20236;-72
2022/01/14 10:35:12;;;;;;;32.93;13.23;;;;;;;6.67;97.72;103170.78;5057431;28;20260;-74
2022/01/14 10:37:37;;;;;;;26.93;13.73;;;;;;;6.69;98.17;103165.78;5070024;28;20290;-74
2022/01/14 10:40:13;;;;;;;32.53;13.03;;;;;;;6.69;98.16;103156.50;5069642;28;20288;-73
2022/01/14 10:42:40;;;;;;;26.90;12.43;;;;;;;6.68;98.61;103169.13;5068793;28;20284;-74
2022/01/14 10:45:19;;;;;;;31.23;13.43;;;;;;;6.69;98.68;103170.88;5070268;28;20181;-74
2022/01/14 10:47:53;;;;;;;27.63;12.60;;;;;;;6.67;98.48;103164.78;5063703;28;20292;-74
2022/01/14 10:50:29;;;;;;;33.93;12.70;;;;;;;6.68;98.50;103171.66;5066613;28;20557;-75
2022/01/14 10:52:55;;;;;;;27.53;12.13;;;;;;;6.75;97.88;103161.13;5058434;28;20181;-74
2022/01/14 10:55:47;;;;;;;24.77;11.00;;;;;;;6.74;98.18;103164.47;5055277;28;20196;-74
2022/01/14 10:58:22;;;;;;;24.67;11.53;;;;;;;6.74;98.00;103161.91;5069517;28;20267;-74
2022/01/14 11:00:50;;;;;;;23.43;12.27;;;;;;;6.78;98.27;103161.38;5069645;28;20169;-75
2022/01/14 11:03:30;;;;;;;24.63;10.20;;;;;;;6.80;98.08;103159.78;5069668;28;20212;-75
2022/01/14 11:06:14;;;;;;;23.67;10.70;;;;;;;6.81;97.60;103165.00;5069592;28;20779;-75
2022/01/14 11:08:39;;;;;;;17.80;9.40;;;;;;;6.87;97.22;103167.13;5068614;28;20217;-74
2022/01/14 11:11:05;;;;;;;21.77;10.77;;;;;;;6.93;97.51;103149.72;5068359;28;20205;-73
2022/01/14 11:13:30;;;;;;;26.43;10.77;;;;;;;6.97;97.91;103160.25;5068037;28;20243;-74
2022/01/14 11:15:55;;;;;;;24.07;9.77;;;;;;;6.92;97.68;103155.59;5069655;28;20188;-74
2022/01/14 11:18:21;;;;;;;17.53;9.13;;;;;;;6.99;97.55;103167.97;5069125;28;20212;-74
2022/01/14 11:23:30;;;;;;;18.67;8.83;;;;;;;6.93;97.38;103173.53;5069592;28;20173;-74
2022/01/14 11:25:58;;;;;;;15.97;8.87;;;;;;;6.92;97.48;103171.78;5068007;28;20715;-75
2022/01/14 11:28:28;;;;;;;23.57;10.10;;;;;;;6.93;98.15;103180.28;5069028;28;20201;-74
2022/01/14 11:30:53;;;;;;;17.80;9.00;;;;;;;6.94;98.27;103164.22;5069316;28;20184;-74
2022/01/14 11:33:19;;;;;;;18.03;9.37;;;;;;;6.97;98.00;103155.16;5069188;28;20188;-74
2022/01/14 11:35:55;;;;;;;24.30;9.50;;;;;;;6.99;98.79;103143.41;5070093;28;20154;-74
2022/01/14 11:38:36;;;;;;;14.60;8.97;;;;;;;6.99;98.62;103142.50;5067935;28;20204;-74
2022/01/14 11:41:02;;;;;;;19.83;8.90;;;;;;;7.03;98.61;103145.38;5069323;28;20188;-74
2022/01/14 11:43:54;;;;;;;20.10;9.27;;;;;;;7.08;98.52;103140.59;5069283;28;20195;-74
2022/01/14 11:46:32;;;;;;;20.37;8.30;;;;;;;7.06;98.25;103144.72;5067141;28;20579;-74
2022/01/14 11:48:58;;;;;;;16.40;8.80;;;;;;;7.10;98.35;103150.13;5064741;28;20196;-73
2022/01/14 11:51:24;;;;;;;18.80;9.17;;;;;;;7.16;98.13;103150.56;5069324;28;20189;-74